createdAt,value
2022-09-06T00:02:01.699Z,99857.38
2022-09-06T00:04:29.495Z,99855.88
2022-09-06T00:06:57.268Z,99857.88
2022-09-06T00:09:25.218Z,99851.09
2022-09-06T00:11:54.385Z,99853.63
2022-09-06T00:14:22.177Z,99847.72
2022-09-06T00:16:50.247Z,99843.34
2022-09-06T00:19:17.912Z,99846.03
2022-09-06T00:21:45.585Z,99845.59
2022-09-06T00:24:13.318Z,99849.53
2022-09-06T00:26:41.100Z,99855.22
2022-09-06T00:29:10.167Z,99858.72
2022-09-06T00:31:37.811Z,99864.75
2022-09-06T00:34:05.585Z,99856.56
2022-09-06T00:36:33.311Z,99858.88
2022-09-06T00:39:01.028Z,99861.03
2022-09-06T00:41:28.976Z,99860.34
2022-09-06T00:43:56.733Z,99857.00
2022-09-06T00:46:30.111Z,99846.00
2022-09-06T00:49:02.703Z,99835.16
2022-09-06T00:51:33.654Z,99848.66
2022-09-06T00:54:04.025Z,99855.16
2022-09-06T00:56:33.947Z,99852.81
2022-09-06T00:59:02.428Z,99851.25
2022-09-06T01:01:31.679Z,99848.97
2022-09-06T01:03:59.737Z,99851.75
2022-09-06T01:06:39.669Z,99848.53
2022-09-06T01:09:16.901Z,99852.19
2022-09-06T01:12:05.995Z,99866.75
2022-09-06T01:14:45.995Z,99859.44
2022-09-06T01:17:27.076Z,99865.44
2022-09-06T01:20:33.497Z,99859.53
2022-09-06T01:23:19.470Z,99866.69
2022-09-06T01:26:00.292Z,99867.09
2022-09-06T01:28:33.845Z,99875.81
2022-09-06T01:31:12.549Z,99881.81
2022-09-06T01:33:49.555Z,99892.53
2022-09-06T01:36:20.746Z,99893.31
2022-09-06T01:38:48.408Z,99903.91
2022-09-06T01:41:16.072Z,99997.91
2022-09-06T01:43:49.305Z,100034.69
2022-09-06T01:46:23.351Z,100036.63
2022-09-06T01:49:03.604Z,100025.63
2022-09-06T01:51:38.814Z,100042.53
2022-09-06T01:54:26.158Z,100052.47
2022-09-06T01:57:09.814Z,100054.38
2022-09-06T01:59:58.603Z,100045.94
2022-09-06T02:02:34.599Z,100037.50
2022-09-06T02:05:07.427Z,100031.03
2022-09-06T02:07:37.973Z,100033.13
2022-09-06T02:10:10.153Z,100031.41
2022-09-06T02:12:42.172Z,100023.81
2022-09-06T02:15:15.313Z,100026.69
2022-09-06T02:17:48.635Z,100003.50
2022-09-06T02:20:21.491Z,99987.19
2022-09-06T02:22:52.113Z,99971.50
2022-09-06T02:25:25.499Z,99965.69
2022-09-06T02:27:53.780Z,99957.22
2022-09-06T02:30:22.877Z,99955.31
2022-09-06T02:32:55.415Z,99934.25
2022-09-06T02:35:23.434Z,99967.38
2022-09-06T02:37:52.088Z,99965.78
2022-09-06T02:40:20.332Z,99969.88
2022-09-06T02:42:48.013Z,99970.66
2022-09-06T02:45:15.883Z,99981.81
2022-09-06T02:47:44.856Z,99991.59
2022-09-06T02:50:13.209Z,100014.13
2022-09-06T02:52:40.905Z,100019.53
2022-09-06T02:55:09.325Z,100040.63
2022-09-06T02:57:37.009Z,100032.25
2022-09-06T03:00:05.711Z,100034.84
2022-09-06T03:02:33.502Z,100005.41
2022-09-06T03:05:02.933Z,99993.56
2022-09-06T03:07:30.716Z,99982.66
2022-09-06T03:09:58.424Z,99975.59
2022-09-06T03:12:26.088Z,99971.22
2022-09-06T03:14:55.095Z,99973.59
2022-09-06T03:17:23.059Z,99982.59
2022-09-06T03:19:50.788Z,100007.28
2022-09-06T03:22:19.800Z,100004.47
2022-09-06T03:24:48.887Z,99988.34
2022-09-06T03:27:16.531Z,99949.13
2022-09-06T03:29:44.185Z,99926.16
2022-09-06T03:32:11.882Z,99912.00
2022-09-06T03:34:39.589Z,99899.31
2022-09-06T03:37:07.301Z,99882.84
2022-09-06T03:39:36.328Z,99864.47
2022-09-06T03:42:04.267Z,99866.03
2022-09-06T03:44:31.930Z,99871.63
2022-09-06T03:46:59.671Z,99872.56
2022-09-06T03:49:27.408Z,99862.03
2022-09-06T03:51:55.155Z,99859.16
2022-09-06T03:54:24.448Z,99857.53
2022-09-06T03:56:53.465Z,99839.75
2022-09-06T03:59:21.138Z,99832.88
2022-09-06T04:01:48.801Z,99817.63
2022-09-06T04:04:16.475Z,99832.44
2022-09-06T04:06:44.161Z,99851.41
2022-09-06T04:09:11.839Z,99851.59
2022-09-06T04:11:39.563Z,99851.59
2022-09-06T04:14:08.571Z,99861.50
2022-09-06T04:16:36.305Z,99869.16
2022-09-06T04:19:04.518Z,99872.56
2022-09-06T04:21:32.761Z,99878.38
2022-09-06T04:24:00.476Z,99879.84
2022-09-06T04:26:28.164Z,99874.00
2022-09-06T04:28:55.896Z,99873.31
2022-09-06T04:31:24.898Z,99870.94
2022-09-06T04:33:53.084Z,99869.75
2022-09-06T04:36:20.745Z,99858.09
2022-09-06T04:38:48.423Z,99860.81
2022-09-06T04:41:18.652Z,99860.00
2022-09-06T04:43:46.437Z,99863.41
2022-09-06T04:46:25.774Z,99868.63
2022-09-06T04:48:54.706Z,99879.34
2022-09-06T04:51:23.263Z,99872.75
2022-09-06T04:53:51.385Z,99876.22
2022-09-06T04:56:20.898Z,99862.44
2022-09-06T04:58:50.300Z,99873.34
2022-09-06T05:01:18.461Z,99872.38
2022-09-06T05:03:47.624Z,99873.13
2022-09-06T05:06:21.652Z,99874.16
2022-09-06T05:08:49.969Z,99878.75
2022-09-06T05:11:18.413Z,99873.78
2022-09-06T05:13:47.464Z,99859.25
2022-09-06T05:16:15.363Z,99882.63
2022-09-06T05:18:44.196Z,99888.25
2022-09-06T05:21:13.228Z,99904.25
2022-09-06T05:23:40.991Z,99904.44
2022-09-06T05:26:09.154Z,99908.13
2022-09-06T05:28:36.897Z,99907.50
2022-09-06T05:31:08.993Z,99928.47
2022-09-06T05:33:36.629Z,99923.38
2022-09-06T05:36:04.545Z,99924.25
2022-09-06T05:38:33.985Z,99926.97
2022-09-06T05:41:01.958Z,99924.72
2022-09-06T05:43:29.685Z,99926.44
2022-09-06T05:45:57.425Z,99915.06
2022-09-06T05:48:25.249Z,99926.34
2022-09-06T05:51:01.215Z,99939.53
2022-09-06T05:53:36.600Z,99942.03
2022-09-06T05:56:06.039Z,99945.03
2022-09-06T05:58:34.328Z,99948.72
2022-09-06T06:01:09.581Z,99953.75
2022-09-06T06:03:37.328Z,99952.94
2022-09-06T06:06:05.173Z,99959.25
2022-09-06T06:08:32.897Z,99965.25
2022-09-06T06:11:02.262Z,99960.38
2022-09-06T06:13:34.714Z,99955.41
2022-09-06T06:16:03.163Z,99963.25
2022-09-06T06:18:30.884Z,99970.59
2022-09-06T06:21:09.357Z,99973.03
2022-09-06T06:23:37.364Z,99968.72
2022-09-06T06:26:07.256Z,99974.94
2022-09-06T06:28:35.611Z,99971.19
2022-09-06T06:31:03.440Z,99973.25
2022-09-06T06:33:31.179Z,99976.66
2022-09-06T06:36:00.555Z,99980.22
2022-09-06T06:38:32.745Z,99976.03
2022-09-06T06:41:05.839Z,99978.19
2022-09-06T06:43:37.701Z,99973.22
2022-09-06T06:46:05.863Z,99976.53
2022-09-06T06:48:33.659Z,99977.50
2022-09-06T06:51:01.747Z,99975.13
2022-09-06T06:53:29.491Z,99984.91
2022-09-06T06:55:57.144Z,99984.69
2022-09-06T06:58:25.000Z,99928.06
2022-09-06T07:00:54.370Z,99991.09
2022-09-06T07:03:22.069Z,99999.16
2022-09-06T07:08:38.197Z,100000.16
2022-09-06T07:11:06.781Z,100000.41
2022-09-06T07:13:34.867Z,99996.06
2022-09-06T07:16:12.210Z,99989.81
2022-09-06T07:18:42.058Z,99985.66
2022-09-06T07:24:07.922Z,99983.22
2022-09-06T07:26:37.533Z,99987.59
2022-09-06T07:29:06.639Z,99993.97
2022-09-06T07:34:26.303Z,99989.19
2022-09-06T07:36:54.458Z,100001.47
2022-09-06T07:39:22.550Z,100004.97
2022-09-06T07:41:50.251Z,99993.06
2022-09-06T07:44:17.869Z,100001.00
2022-09-06T07:46:47.158Z,100004.19
2022-09-06T07:49:14.920Z,99998.88
2022-09-06T07:51:42.587Z,99990.53
2022-09-06T07:54:29.906Z,99990.38
2022-09-06T07:56:58.468Z,99988.97
2022-09-06T07:59:27.410Z,99991.03
2022-09-06T08:01:56.462Z,99986.97
2022-09-06T08:04:24.243Z,99980.03
2022-09-06T08:09:41.059Z,99987.53
2022-09-06T08:12:09.635Z,99980.97
2022-09-06T08:14:37.297Z,99985.56
2022-09-06T08:17:06.449Z,99991.53
2022-09-06T08:19:34.448Z,99987.56
2022-09-06T08:22:02.275Z,99990.13
2022-09-06T08:24:30.357Z,99986.28
2022-09-06T08:26:58.070Z,99989.16
2022-09-06T08:29:25.940Z,99996.69
2022-09-06T08:31:54.028Z,99993.84
2022-09-06T08:34:23.096Z,99997.03
2022-09-06T08:36:50.816Z,100000.38
2022-09-06T08:39:19.651Z,99983.44
2022-09-06T08:41:52.813Z,99995.50
2022-09-06T08:47:13.811Z,100000.97
2022-09-06T08:49:44.905Z,99996.75
2022-09-06T08:52:32.645Z,100000.22
2022-09-06T08:55:14.151Z,99991.78
2022-09-06T08:57:55.382Z,99986.47
2022-09-06T09:00:23.626Z,99947.94
2022-09-06T09:02:56.114Z,99985.41
2022-09-06T09:05:31.176Z,99967.63
2022-09-06T09:08:08.714Z,99972.78
2022-09-06T09:10:43.029Z,99967.75
2022-09-06T09:13:23.213Z,99958.81
2022-09-06T09:15:50.976Z,99957.19
2022-09-06T09:18:23.777Z,99964.63
2022-09-06T09:20:53.404Z,99954.88
2022-09-06T09:23:21.104Z,99955.78
2022-09-06T09:25:52.561Z,99957.06
2022-09-06T09:28:23.570Z,99951.38
2022-09-06T09:30:53.609Z,99953.50
2022-09-06T09:33:30.458Z,99945.44
2022-09-06T09:36:02.005Z,99943.25
2022-09-06T09:38:33.683Z,99951.19
2022-09-06T09:41:03.682Z,99950.53
2022-09-06T09:43:32.611Z,99939.19
2022-09-06T09:46:30.680Z,99937.63
2022-09-06T09:49:04.807Z,99938.78
2022-09-06T09:51:35.803Z,99934.72
2022-09-06T09:54:05.415Z,99937.25
2022-09-06T09:56:44.575Z,99935.09
2022-09-06T09:59:27.687Z,99939.16
2022-09-06T10:01:59.892Z,99936.22
2022-09-06T10:04:49.264Z,99931.09
2022-09-06T10:07:20.743Z,99930.22
2022-09-06T10:09:50.100Z,99928.13
2022-09-06T10:12:20.061Z,99916.22
2022-09-06T10:14:49.869Z,99912.56
2022-09-06T10:17:23.184Z,99920.56
2022-09-06T10:19:50.859Z,99929.59
2022-09-06T10:22:28.325Z,99922.59
2022-09-06T10:25:20.493Z,99929.75
2022-09-06T10:28:10.844Z,99906.13
2022-09-06T10:30:44.481Z,99928.38
2022-09-06T10:33:26.262Z,99929.22
2022-09-06T10:35:57.831Z,99922.31
2022-09-06T10:38:42.654Z,99921.84
2022-09-06T10:41:30.763Z,99908.94
2022-09-06T10:44:06.255Z,99909.97
2022-09-06T10:46:36.016Z,99905.97
2022-09-06T10:49:03.768Z,99904.41
2022-09-06T10:51:38.772Z,99900.16
2022-09-06T10:54:10.906Z,99908.59
2022-09-06T10:56:44.341Z,99906.38
2022-09-06T11:02:13.903Z,99910.44
2022-09-06T11:07:32.139Z,99891.00
2022-09-06T11:10:05.945Z,99887.63
2022-09-06T11:12:40.179Z,99883.25
2022-09-06T11:15:12.591Z,99885.59
2022-09-06T11:17:46.993Z,99879.13
2022-09-06T11:20:21.117Z,99877.56
2022-09-06T11:23:21.216Z,99878.69
2022-09-06T11:26:05.478Z,99882.38
2022-09-06T11:28:38.306Z,99869.56
2022-09-06T11:31:07.547Z,99862.66
2022-09-06T11:33:39.696Z,99872.47
2022-09-06T11:36:19.761Z,99870.44
2022-09-06T11:38:56.266Z,99875.06
2022-09-06T11:41:31.177Z,99871.16
2022-09-06T11:43:59.637Z,99870.63
2022-09-06T11:47:01.177Z,99867.53
2022-09-06T11:49:32.604Z,99866.81
2022-09-06T11:52:00.369Z,99867.34
2022-09-06T11:54:42.876Z,99869.66
2022-09-06T11:57:16.441Z,99865.81
2022-09-06T11:59:55.578Z,99854.44
2022-09-06T12:02:36.655Z,99862.19
2022-09-06T12:05:14.345Z,99851.09
2022-09-06T12:08:30.147Z,99850.06
2022-09-06T12:11:01.057Z,99849.28
2022-09-06T12:13:55.347Z,99850.34
2022-09-06T12:16:23.953Z,99855.47
2022-09-06T12:19:10.407Z,99854.41
2022-09-06T12:21:45.983Z,99848.25
2022-09-06T12:24:51.091Z,99838.97
2022-09-06T12:27:20.202Z,99842.84
2022-09-06T12:29:58.062Z,99827.34
2022-09-06T12:32:31.699Z,99828.84
2022-09-06T12:37:56.360Z,99837.88
2022-09-06T12:40:26.316Z,99837.31
2022-09-06T12:42:54.977Z,99825.72
2022-09-06T12:45:27.576Z,99806.63
2022-09-06T12:48:06.354Z,99823.13
2022-09-06T12:50:34.154Z,99815.06
2022-09-06T12:53:03.661Z,99814.09
2022-09-06T12:55:33.626Z,99811.69
2022-09-06T12:58:04.896Z,99804.75
2022-09-06T13:00:37.510Z,99802.16
2022-09-06T13:03:15.778Z,99780.34
2022-09-06T13:05:45.626Z,99797.56
2022-09-06T13:08:19.465Z,99800.16
2022-09-06T13:10:48.832Z,99791.59
2022-09-06T13:13:22.851Z,99792.56
2022-09-06T13:15:52.809Z,99784.56
2022-09-06T13:18:23.432Z,99789.13
2022-09-06T13:21:02.435Z,99783.47
2022-09-06T13:23:31.033Z,99779.09
2022-09-06T13:25:58.935Z,99781.38
2022-09-06T13:28:28.745Z,99788.31
2022-09-06T13:31:07.959Z,99778.84
2022-09-06T13:33:37.605Z,99781.00
2022-09-06T13:36:09.338Z,99771.63
2022-09-06T13:38:41.279Z,99765.31
2022-09-06T13:41:46.638Z,99758.75
2022-09-06T13:44:31.038Z,99761.25
2022-09-06T13:46:59.011Z,99762.75
2022-09-06T13:49:27.201Z,99769.75
2022-09-06T13:51:56.312Z,99768.84
2022-09-06T13:54:23.950Z,99763.44
2022-09-06T13:56:51.823Z,99755.44
2022-09-06T13:59:20.360Z,99768.13
2022-09-06T14:01:57.113Z,99766.09
2022-09-06T14:04:25.482Z,99761.63
2022-09-06T14:06:53.991Z,99773.25
2022-09-06T14:09:21.833Z,99769.53
2022-09-06T14:11:49.548Z,99770.09
2022-09-06T14:14:17.673Z,99765.53
2022-09-06T14:16:45.591Z,99761.63
2022-09-06T14:19:15.235Z,99751.63
2022-09-06T14:21:43.216Z,99748.41
2022-09-06T14:24:10.967Z,99752.81
2022-09-06T14:26:39.373Z,99747.72
2022-09-06T14:29:08.154Z,99747.75
2022-09-06T14:31:35.899Z,99734.34
2022-09-06T14:34:04.201Z,99736.91
2022-09-06T14:36:34.168Z,99728.13
2022-09-06T14:39:02.798Z,99721.91
2022-09-06T14:41:30.545Z,99724.06
2022-09-06T14:43:59.526Z,99725.06
2022-09-06T14:46:28.841Z,99729.31
2022-09-06T14:49:00.972Z,99723.06
2022-09-06T14:51:29.598Z,99689.13
2022-09-06T14:54:01.001Z,99715.94
2022-09-06T14:56:30.245Z,99706.94
2022-09-06T14:58:59.712Z,99707.75
2022-09-06T15:01:31.105Z,99709.75
2022-09-06T15:04:03.583Z,99705.38
2022-09-06T15:06:33.526Z,99700.72
2022-09-06T15:09:02.736Z,99700.13
2022-09-06T15:11:34.661Z,99695.72
2022-09-06T15:14:04.058Z,99696.84
2022-09-06T15:16:32.732Z,99695.41
2022-09-06T15:19:02.187Z,99688.50
2022-09-06T15:21:30.275Z,99685.75
2022-09-06T15:23:58.780Z,99696.25
2022-09-06T15:26:28.173Z,99686.50
2022-09-06T15:28:56.393Z,99691.22
2022-09-06T15:31:24.320Z,99686.19
2022-09-06T15:33:53.572Z,99682.06
2022-09-06T15:36:21.878Z,99681.13
2022-09-06T15:38:52.239Z,99688.63
2022-09-06T15:41:23.403Z,99682.19
2022-09-06T15:43:56.635Z,99688.34
2022-09-06T15:46:42.834Z,99690.88
2022-09-06T15:49:12.742Z,99677.09
2022-09-06T15:51:42.135Z,99675.91
2022-09-06T15:54:11.768Z,99679.63
2022-09-06T15:56:39.610Z,99689.38
2022-09-06T15:59:09.154Z,99686.03
2022-09-06T16:01:37.577Z,99684.44
2022-09-06T16:04:06.619Z,99673.44
2022-09-06T16:06:37.097Z,99668.22
2022-09-06T16:09:07.511Z,99657.53
2022-09-06T16:11:36.715Z,99660.19
2022-09-06T16:14:06.225Z,99662.16
2022-09-06T16:16:36.025Z,99656.13
2022-09-06T16:19:04.086Z,99652.97
2022-09-06T16:21:33.423Z,99673.59
2022-09-06T16:24:02.961Z,99667.38
2022-09-06T16:26:33.152Z,99675.72
2022-09-06T16:29:03.313Z,99675.16
2022-09-06T16:31:32.839Z,99668.81
2022-09-06T16:34:03.624Z,99667.16
2022-09-06T16:36:31.748Z,99666.09
2022-09-06T16:38:59.595Z,99670.09
2022-09-06T16:41:32.143Z,99668.56
2022-09-06T16:44:00.018Z,99671.00
2022-09-06T16:46:29.317Z,99676.13
2022-09-06T16:49:00.036Z,99672.81
2022-09-06T16:51:31.099Z,99673.22
2022-09-06T16:54:00.269Z,99675.41
2022-09-06T16:56:29.235Z,99668.81
2022-09-06T16:58:58.897Z,99670.91
2022-09-06T17:01:28.344Z,99670.13
2022-09-06T17:03:57.349Z,99654.28
2022-09-06T17:06:25.396Z,99666.63
2022-09-06T17:08:58.309Z,99676.28
2022-09-06T17:11:27.181Z,99675.91
2022-09-06T17:13:56.188Z,99680.09
2022-09-06T17:16:41.993Z,99672.28
2022-09-06T17:19:10.268Z,99668.53
2022-09-06T17:21:39.053Z,99668.56
2022-09-06T17:24:09.555Z,99667.31
2022-09-06T17:26:39.170Z,99672.47
2022-09-06T17:29:07.312Z,99671.97
2022-09-06T17:31:35.587Z,99671.75
2022-09-06T17:34:03.688Z,99670.47
2022-09-06T17:36:33.301Z,99674.16
2022-09-06T17:39:02.778Z,99677.56
2022-09-06T17:41:36.530Z,99676.00
2022-09-06T17:44:05.541Z,99675.03
2022-09-06T17:46:33.732Z,99677.00
2022-09-06T17:49:01.518Z,99674.94
2022-09-06T17:51:29.546Z,99670.84
2022-09-06T17:53:57.308Z,99675.75
2022-09-06T17:56:25.572Z,99668.06
2022-09-06T17:58:56.373Z,99687.56
2022-09-06T18:01:26.096Z,99683.25
2022-09-06T18:03:54.476Z,99688.75
2022-09-06T18:06:24.108Z,99697.63
2022-09-06T18:08:53.433Z,99676.28
2022-09-06T18:11:23.399Z,99676.97
2022-09-06T18:13:58.034Z,99678.00
2022-09-06T18:16:26.818Z,99671.88
2022-09-06T18:18:56.753Z,99677.38
2022-09-06T18:21:26.559Z,99684.22
2022-09-06T18:23:55.218Z,99690.16
2022-09-06T18:26:23.264Z,99679.66
2022-09-06T18:28:52.900Z,99686.91
2022-09-06T18:31:23.918Z,99672.06
2022-09-06T18:33:51.992Z,99667.25
2022-09-06T18:36:20.404Z,99665.81
2022-09-06T18:38:48.254Z,99668.75
2022-09-06T18:41:31.295Z,99667.59
2022-09-06T18:44:02.417Z,99671.19
2022-09-06T18:46:32.568Z,99675.19
2022-09-06T18:49:00.756Z,99673.97
2022-09-06T18:51:29.213Z,99669.38
2022-09-06T18:53:59.221Z,99671.53
2022-09-06T18:56:27.509Z,99676.00
2022-09-06T18:58:58.239Z,99675.78
2022-09-06T19:01:28.255Z,99675.66
2022-09-06T19:03:58.950Z,99686.91
2022-09-06T19:06:28.562Z,99683.44
2022-09-06T19:08:59.744Z,99692.03
2022-09-06T19:11:27.950Z,99684.88
2022-09-06T19:13:57.182Z,99672.69
2022-09-06T19:16:26.687Z,99681.94
2022-09-06T19:18:56.037Z,99667.53
2022-09-06T19:21:27.444Z,99676.75
2022-09-06T19:23:57.868Z,99672.38
2022-09-06T19:26:27.025Z,99669.47
2022-09-06T19:28:56.690Z,99669.13
2022-09-06T19:31:26.861Z,99662.28
2022-09-06T19:33:55.586Z,99672.09
2022-09-06T19:36:26.422Z,99665.00
2022-09-06T19:39:03.729Z,99637.94
2022-09-06T19:41:34.011Z,99660.16
2022-09-06T19:44:05.285Z,99661.91
2022-09-06T19:46:33.533Z,99649.94
2022-09-06T19:49:02.197Z,99642.00
2022-09-06T19:51:32.964Z,99638.09
2022-09-06T19:54:01.063Z,99637.19
2022-09-06T19:56:31.734Z,99639.19
2022-09-06T19:59:01.700Z,99630.28
2022-09-06T20:01:31.440Z,99628.91
2022-09-06T20:04:00.588Z,99617.88
2022-09-06T20:06:28.458Z,99621.91
2022-09-06T20:08:59.432Z,99619.19
2022-09-06T20:11:29.748Z,99613.06
2022-09-06T20:13:58.067Z,99614.44
2022-09-06T20:16:26.544Z,99606.97
2022-09-06T20:18:56.170Z,99604.16
2022-09-06T20:21:23.973Z,99601.03
2022-09-06T20:23:54.227Z,99603.38
2022-09-06T20:26:24.999Z,99597.16
2022-09-06T20:28:56.674Z,99594.34
2022-09-06T20:31:24.750Z,99598.13
2022-09-06T20:33:53.078Z,99600.47
2022-09-06T20:36:21.562Z,99600.16
2022-09-06T20:38:50.038Z,99603.50
2022-09-06T20:41:19.289Z,99596.38
2022-09-06T20:43:51.841Z,99604.44
2022-09-06T20:46:21.573Z,99598.19
2022-09-06T20:48:49.864Z,99607.03
2022-09-06T20:51:19.743Z,99602.38
2022-09-06T20:53:49.111Z,99594.53
2022-09-06T20:56:18.585Z,99599.66
2022-09-06T20:58:50.689Z,99603.78
2022-09-06T21:01:22.567Z,99602.69
2022-09-06T21:03:52.381Z,99599.75
2022-09-06T21:06:21.359Z,99595.53
2022-09-06T21:08:49.621Z,99593.75
2022-09-06T21:11:18.014Z,99610.06
2022-09-06T21:13:51.307Z,99600.22
2022-09-06T21:16:24.325Z,99567.97
2022-09-06T21:18:52.657Z,99583.63
2022-09-06T21:21:20.472Z,99595.13
2022-09-06T21:23:48.292Z,99590.91
2022-09-06T21:26:17.136Z,99572.97
2022-09-06T21:28:46.384Z,99590.03
2022-09-06T21:31:18.664Z,99551.53
2022-09-06T21:33:48.026Z,99594.69
2022-09-06T21:36:18.217Z,99584.28
2022-09-06T21:38:47.567Z,99584.88
2022-09-06T21:41:17.684Z,99586.75
2022-09-06T21:43:46.107Z,99576.50
2022-09-06T21:46:17.124Z,99584.09
2022-09-06T21:48:46.771Z,99586.38
2022-09-06T21:51:16.272Z,99600.50
2022-09-06T21:53:45.506Z,99601.44
2022-09-06T21:56:13.760Z,99585.78
2022-09-06T21:58:41.602Z,99590.91
2022-09-06T22:01:09.742Z,99606.88
2022-09-06T22:03:40.088Z,99600.78
2022-09-06T22:06:12.073Z,99611.19
2022-09-06T22:08:42.038Z,99603.47
2022-09-06T22:11:11.355Z,99608.44
2022-09-06T22:13:39.595Z,99590.03
2022-09-06T22:16:08.335Z,99576.25
2022-09-06T22:18:36.641Z,99590.09
2022-09-06T22:21:07.600Z,99593.88
2022-09-06T22:23:35.703Z,99584.06
2022-09-06T22:26:05.645Z,99591.69
2022-09-06T22:28:34.105Z,99582.06
2022-09-06T22:31:01.980Z,99585.22
2022-09-06T22:33:29.812Z,99585.91
2022-09-06T22:35:59.770Z,99585.38
2022-09-06T22:38:29.369Z,99584.44
2022-09-06T22:40:58.424Z,99581.66
2022-09-06T22:43:26.838Z,99558.94
2022-09-06T22:45:55.046Z,99574.63
2022-09-06T22:48:22.944Z,99568.41
2022-09-06T22:50:50.723Z,99555.13
2022-09-06T22:53:18.977Z,99555.81
2022-09-06T22:55:49.331Z,99562.25
2022-09-06T22:58:17.233Z,99559.66
2022-09-06T23:00:45.369Z,99568.75
2022-09-06T23:03:13.413Z,99574.34
2022-09-06T23:05:41.265Z,99573.13
2022-09-06T23:08:09.043Z,99570.13
2022-09-06T23:10:41.602Z,99556.31
2022-09-06T23:13:11.425Z,99552.59
2022-09-06T23:15:41.134Z,99554.41
2022-09-06T23:18:09.365Z,99554.41
2022-09-06T23:20:37.785Z,99550.31
2022-09-06T23:23:05.659Z,99555.00
2022-09-06T23:25:37.164Z,99548.16
2022-09-06T23:28:05.023Z,99537.34
2022-09-06T23:30:37.490Z,99540.44
2022-09-06T23:33:05.753Z,99544.81
2022-09-06T23:35:33.937Z,99545.59
2022-09-06T23:38:01.663Z,99547.94
2022-09-06T23:40:29.507Z,99553.09
2022-09-06T23:42:59.765Z,99556.88
2022-09-06T23:45:27.554Z,99558.22
2022-09-06T23:47:56.713Z,99552.00
2022-09-06T23:50:24.471Z,99556.91
2022-09-06T23:52:52.197Z,99552.09
2022-09-06T23:55:20.005Z,99548.09
2022-09-06T23:57:47.757Z,99553.09
